createdAt,value
2019-01-23T00:00:15.051Z,26.80
2019-01-23T00:01:15.052Z,28.50
2019-01-23T00:02:15.220Z,29.70
2019-01-23T00:03:15.095Z,31.70
2019-01-23T00:04:15.111Z,32.80
2019-01-23T00:05:15.126Z,33.80
2019-01-23T00:06:15.136Z,34.10
2019-01-23T00:07:15.408Z,38.20
2019-01-23T00:08:15.176Z,37.80
2019-01-23T00:09:15.191Z,40.90
2019-01-23T00:10:15.322Z,41.60
2019-01-23T00:11:15.219Z,43.40
2019-01-23T00:12:15.508Z,44.70
2019-01-23T00:13:15.381Z,45.30
2019-01-23T00:14:15.398Z,45.60
2019-01-23T00:15:15.403Z,46.40
2019-01-23T00:16:15.431Z,45.90
2019-01-23T00:17:15.327Z,46.80
2019-01-23T00:18:15.552Z,48.80
2019-01-23T00:19:15.361Z,48.00
2019-01-23T00:20:15.380Z,50.90
2019-01-23T00:21:15.401Z,47.90
2019-01-23T00:22:15.421Z,48.40
2019-01-23T00:23:15.532Z,47.80
2019-01-23T00:24:15.455Z,50.10
2019-01-23T00:25:15.476Z,51.50
2019-01-23T00:26:15.487Z,48.20
2019-01-23T00:27:15.505Z,46.40
2019-01-23T00:28:15.770Z,46.70
2019-01-23T00:29:15.567Z,46.20
2019-01-23T00:30:15.545Z,46.20
2019-01-23T00:31:15.677Z,44.40
2019-01-23T00:32:15.579Z,42.20
2019-01-23T00:33:15.672Z,42.10
2019-01-23T00:34:15.615Z,41.90
2019-01-23T00:35:15.644Z,40.40
2019-01-23T00:36:15.673Z,41.00
2019-01-23T00:37:15.771Z,41.10
2019-01-23T00:38:15.696Z,38.70
2019-01-23T00:39:15.701Z,34.00
2019-01-23T00:40:15.729Z,34.30
2019-01-23T00:41:15.732Z,33.50
2019-01-23T00:42:16.025Z,34.10
2019-01-23T00:43:15.879Z,29.90
2019-01-23T00:44:15.798Z,27.90
2019-01-23T00:45:15.919Z,27.80
2019-01-23T00:46:15.818Z,25.50
2019-01-23T00:47:15.913Z,22.20
2019-01-23T00:48:15.977Z,23.80
2019-01-23T00:49:15.851Z,22.00
2019-01-23T00:50:16.011Z,21.40
2019-01-23T00:51:16.026Z,21.80
2019-01-23T00:52:16.239Z,21.70
2019-01-23T00:53:15.927Z,21.60
2019-01-23T00:54:16.072Z,22.90
2019-01-23T00:55:16.079Z,22.70
2019-01-23T00:56:16.094Z,21.90
2019-01-23T00:57:16.273Z,22.60
2019-01-23T00:58:16.139Z,23.50
2019-01-23T00:59:16.159Z,23.00
2019-01-23T01:00:16.054Z,22.80
2019-01-23T01:01:16.064Z,23.10
2019-01-23T01:02:16.305Z,23.30
2019-01-23T01:03:16.221Z,24.10
2019-01-23T01:04:16.243Z,24.00
2019-01-23T01:05:16.137Z,25.20
2019-01-23T01:06:16.276Z,26.10
2019-01-23T01:07:16.188Z,27.20
2019-01-23T01:08:16.358Z,26.80
2019-01-23T01:09:16.316Z,26.30
2019-01-23T01:10:16.348Z,27.70
2019-01-23T01:11:16.349Z,27.80
2019-01-23T01:12:16.272Z,26.90
2019-01-23T01:13:16.545Z,27.60
2019-01-23T01:14:16.444Z,28.00
2019-01-23T01:15:16.292Z,28.20
2019-01-23T01:16:16.435Z,29.50
2019-01-23T01:17:16.462Z,28.50
2019-01-23T01:18:16.628Z,27.60
2019-01-23T01:19:16.502Z,28.90
2019-01-23T01:20:16.510Z,29.40
2019-01-23T01:21:16.521Z,29.40
2019-01-23T01:22:16.433Z,29.10
2019-01-23T01:23:16.654Z,31.00
2019-01-23T01:24:16.455Z,31.00
2019-01-23T01:25:16.482Z,30.10
2019-01-23T01:26:16.492Z,28.70
2019-01-23T01:27:16.539Z,30.30
2019-01-23T01:28:16.671Z,30.00
2019-01-23T01:29:16.532Z,30.30
2019-01-23T01:30:16.558Z,30.30
2019-01-23T01:31:16.685Z,29.50
2019-01-23T01:32:16.700Z,28.80
2019-01-23T01:33:16.714Z,27.40
2019-01-23T01:34:16.741Z,26.20
2019-01-23T01:35:16.644Z,28.40
2019-01-23T01:36:16.667Z,28.30
2019-01-23T01:37:16.681Z,28.00
2019-01-23T01:38:16.792Z,30.30
2019-01-23T01:39:16.711Z,30.10
2019-01-23T01:40:16.840Z,30.40
2019-01-23T01:41:16.855Z,31.90
2019-01-23T01:42:16.757Z,30.50
2019-01-23T01:43:17.036Z,30.00
2019-01-23T01:44:16.919Z,31.60
2019-01-23T01:45:16.935Z,30.90
2019-01-23T01:46:16.826Z,29.70
2019-01-23T01:47:16.966Z,30.50
2019-01-23T01:48:17.081Z,31.40
2019-01-23T01:49:16.855Z,30.50
2019-01-23T01:50:17.000Z,30.90
2019-01-23T01:51:17.023Z,30.80
2019-01-23T01:52:17.036Z,30.40
2019-01-23T01:53:17.042Z,30.20
2019-01-23T01:54:16.959Z,29.90
2019-01-23T01:55:16.993Z,30.80
2019-01-23T01:56:16.994Z,28.30
2019-01-23T01:57:16.996Z,27.30
2019-01-23T01:58:17.128Z,27.80
2019-01-23T01:59:17.155Z,28.30
2019-01-23T02:00:17.053Z,27.60
2019-01-23T02:01:17.115Z,26.90
2019-01-23T02:02:17.072Z,27.40
2019-01-23T02:03:17.285Z,28.80
2019-01-23T02:04:17.128Z,28.10
2019-01-23T02:05:17.152Z,27.60
2019-01-23T02:06:17.175Z,26.70
2019-01-23T02:07:17.176Z,26.90
2019-01-23T02:08:17.258Z,26.20
2019-01-23T02:09:17.365Z,25.60
2019-01-23T02:10:17.342Z,25.30
2019-01-23T02:11:17.244Z,24.30
2019-01-23T02:12:17.378Z,23.40
2019-01-23T02:13:17.496Z,21.30
2019-01-23T02:14:17.277Z,21.10
2019-01-23T02:16:17.445Z,21.20
2019-01-23T02:17:17.352Z,20.60
2019-01-23T02:18:17.493Z,20.30
2019-01-23T02:19:17.375Z,22.40
2019-01-23T02:20:17.407Z,21.80
2019-01-23T02:21:17.528Z,22.10
2019-01-23T02:22:17.441Z,21.90
2019-01-23T02:23:17.716Z,21.50
2019-01-23T02:24:17.590Z,23.00
2019-01-23T02:25:17.476Z,19.90
2019-01-23T02:26:17.507Z,19.40
2019-01-23T02:27:17.518Z,17.90
2019-01-23T02:28:17.659Z,18.10
2019-01-23T02:29:17.555Z,17.20
2019-01-23T02:30:17.570Z,17.00
2019-01-23T02:31:17.606Z,18.80
2019-01-23T02:32:17.597Z,18.80
2019-01-23T02:33:17.837Z,18.70
2019-01-23T02:34:17.640Z,18.40
2019-01-23T02:35:17.644Z,18.70
2019-01-23T02:36:17.679Z,17.40
2019-01-23T02:37:17.685Z,18.40
2019-01-23T02:38:17.797Z,16.90
2019-01-23T02:39:17.717Z,17.60
2019-01-23T02:40:17.810Z,17.40
2019-01-23T02:41:17.760Z,19.00
2019-01-23T02:42:17.799Z,18.30
2019-01-23T02:43:17.955Z,20.00
2019-01-23T02:44:17.818Z,19.20
2019-01-23T02:45:17.909Z,20.10
2019-01-23T02:46:17.864Z,18.70
2019-01-23T02:47:17.978Z,19.60
2019-01-23T02:48:18.091Z,19.70
2019-01-23T02:49:17.888Z,19.20
2019-01-23T02:50:17.916Z,18.40
2019-01-23T02:51:17.918Z,18.60
2019-01-23T02:52:17.961Z,17.60
2019-01-23T02:53:18.057Z,19.30
2019-01-23T02:54:18.091Z,20.20
2019-01-23T02:55:18.109Z,18.80
2019-01-23T02:56:18.006Z,19.60
2019-01-23T02:57:18.024Z,20.80
2019-01-23T02:58:18.109Z,20.20
2019-01-23T02:59:18.105Z,19.70
2019-01-23T03:00:18.196Z,20.70
2019-01-23T03:01:18.110Z,21.60
2019-01-23T03:02:18.127Z,21.10
2019-01-23T03:03:18.227Z,20.90
2019-01-23T03:04:18.143Z,19.80
2019-01-23T03:05:18.281Z,18.90
2019-01-23T03:06:18.233Z,20.90
2019-01-23T03:07:18.318Z,19.90
2019-01-23T03:08:18.353Z,20.20
2019-01-23T03:09:18.350Z,20.40
2019-01-23T03:10:18.374Z,20.20
2019-01-23T03:11:18.387Z,20.20
2019-01-23T03:12:18.278Z,20.70
2019-01-23T03:13:18.412Z,21.70
2019-01-23T03:14:18.305Z,20.10
2019-01-23T03:15:18.342Z,18.40
2019-01-23T03:16:18.472Z,19.90
2019-01-23T03:17:18.362Z,18.90
2019-01-23T03:18:18.607Z,19.10
2019-01-23T03:19:18.518Z,18.70
2019-01-23T03:20:18.423Z,18.00
2019-01-23T03:21:18.452Z,18.60
2019-01-23T03:22:18.470Z,19.30
2019-01-23T03:23:18.562Z,17.60
2019-01-23T03:24:18.609Z,17.30
2019-01-23T03:25:18.515Z,17.00
2019-01-23T03:26:18.530Z,17.80
2019-01-23T03:27:18.659Z,17.50
2019-01-23T03:28:18.771Z,17.60
2019-01-23T03:29:24.562Z,16.80
2019-01-23T03:30:18.617Z,16.30
2019-01-23T03:31:18.611Z,17.00
2019-01-23T03:32:18.625Z,16.60
2019-01-23T03:33:18.764Z,17.90
2019-01-23T03:34:18.664Z,18.20
2019-01-23T03:35:18.794Z,17.50
2019-01-23T03:36:18.822Z,19.40
2019-01-23T03:37:18.722Z,17.30
2019-01-23T03:38:18.887Z,17.50
2019-01-23T03:39:18.750Z,17.00
2019-01-23T03:40:18.779Z,16.40
2019-01-23T03:41:18.901Z,17.80
2019-01-23T03:42:18.798Z,17.30
2019-01-23T03:43:18.976Z,17.60
2019-01-23T03:44:18.836Z,17.70
2019-01-23T03:45:18.964Z,18.00
2019-01-23T03:46:18.864Z,19.10
2019-01-23T03:47:18.887Z,18.80
2019-01-23T03:48:18.947Z,19.50
2019-01-23T03:49:19.033Z,20.20
2019-01-23T03:50:18.937Z,20.30
2019-01-23T03:51:19.048Z,21.80
2019-01-23T03:52:18.964Z,20.60
2019-01-23T03:53:19.120Z,20.10
2019-01-23T03:54:19.118Z,19.40
2019-01-23T03:55:19.139Z,20.20
2019-01-23T03:56:19.142Z,21.20
2019-01-23T03:57:19.083Z,20.10
2019-01-23T03:58:19.076Z,20.10
2019-01-23T03:59:19.137Z,20.00
2019-01-23T04:00:19.113Z,21.70
2019-01-23T04:01:19.219Z,20.10
2019-01-23T04:02:19.133Z,21.40
2019-01-23T04:03:19.147Z,18.80
2019-01-23T04:04:19.186Z,20.70
2019-01-23T04:05:19.185Z,23.40
2019-01-23T04:06:19.423Z,21.00
2019-01-23T04:07:19.219Z,20.20
2019-01-23T04:08:19.356Z,22.80
2019-01-23T04:09:19.374Z,19.20
2019-01-23T04:10:19.293Z,20.00
2019-01-23T04:11:19.509Z,19.10
2019-01-23T04:12:19.366Z,22.40
2019-01-23T04:13:19.443Z,19.70
2019-01-23T04:14:19.336Z,20.40
2019-01-23T04:15:19.478Z,22.20
2019-01-23T04:16:19.594Z,19.20
2019-01-23T04:17:19.521Z,19.60
2019-01-23T04:18:19.537Z,17.50
2019-01-23T04:19:19.430Z,20.20
2019-01-23T04:20:19.442Z,20.80
2019-01-23T04:21:19.608Z,19.10
2019-01-23T04:22:19.603Z,21.70
2019-01-23T04:23:19.492Z,17.80
2019-01-23T04:24:19.531Z,18.20
2019-01-23T04:25:19.550Z,19.00
2019-01-23T04:26:19.695Z,18.80
2019-01-23T04:27:19.677Z,18.10
2019-01-23T04:28:19.699Z,18.00
2019-01-23T04:29:19.618Z,16.50
2019-01-23T04:30:19.632Z,15.70
2019-01-23T04:31:19.729Z,17.10
2019-01-23T04:32:19.763Z,18.00
2019-01-23T04:33:19.674Z,16.50
2019-01-23T04:34:19.803Z,17.30
2019-01-23T04:35:19.837Z,15.30
2019-01-23T04:36:19.858Z,14.80
2019-01-23T04:37:19.785Z,14.20
2019-01-23T04:38:19.763Z,15.40
2019-01-23T04:39:19.782Z,14.50
2019-01-23T04:40:19.905Z,14.50
2019-01-23T04:41:19.853Z,15.70
2019-01-23T04:42:19.933Z,13.80
2019-01-23T04:43:19.834Z,14.20
2019-01-23T04:44:19.852Z,15.20
2019-01-23T04:45:19.883Z,15.40
2019-01-23T04:46:19.935Z,13.30
2019-01-23T04:47:20.024Z,15.40
2019-01-23T04:48:20.041Z,15.80
2019-01-23T04:49:19.949Z,13.30
2019-01-23T04:50:20.070Z,13.40
2019-01-23T04:51:20.029Z,14.70
2019-01-23T04:52:20.049Z,12.90
2019-01-23T04:53:20.034Z,13.20
2019-01-23T04:54:20.019Z,13.10
2019-01-23T04:55:20.164Z,14.50
2019-01-23T04:56:20.125Z,13.00
2019-01-23T04:57:20.189Z,14.10
2019-01-23T04:58:20.216Z,13.50
2019-01-23T04:59:20.223Z,14.30
2019-01-23T05:00:20.243Z,12.50
2019-01-23T05:01:20.259Z,12.90
2019-01-23T05:02:20.285Z,14.70
2019-01-23T05:03:20.185Z,12.60
2019-01-23T05:04:20.207Z,12.70
2019-01-23T05:05:20.199Z,12.80
2019-01-23T05:06:20.268Z,13.10
2019-01-23T05:07:20.358Z,14.20
2019-01-23T05:08:20.282Z,13.50
2019-01-23T05:09:20.441Z,12.00
2019-01-23T05:10:20.415Z,12.40
2019-01-23T05:11:20.446Z,12.30
2019-01-23T05:12:20.447Z,11.30
2019-01-23T05:13:20.463Z,12.90
2019-01-23T05:14:20.377Z,12.20
2019-01-23T05:15:20.399Z,11.70
2019-01-23T05:16:20.415Z,11.40
2019-01-23T05:17:20.439Z,11.00
2019-01-23T05:18:20.648Z,11.70
2019-01-23T05:19:20.453Z,10.80
2019-01-23T05:20:20.486Z,10.80
2019-01-23T05:21:20.485Z,12.10
2019-01-23T05:22:20.502Z,11.60
2019-01-23T05:23:20.681Z,10.80
2019-01-23T05:24:20.526Z,10.10
2019-01-23T05:25:20.558Z,10.00
2019-01-23T05:26:20.575Z,11.00
2019-01-23T05:27:20.710Z,11.30
2019-01-23T05:28:20.718Z,10.80
2019-01-23T05:29:20.736Z,10.80
2019-01-23T05:30:20.641Z,10.70
2019-01-23T05:31:20.770Z,10.70
2019-01-23T05:32:20.677Z,10.60
2019-01-23T05:33:20.898Z,11.70
2019-01-23T05:34:20.704Z,11.60
2019-01-23T05:35:20.777Z,11.20
2019-01-23T05:36:20.743Z,11.40
2019-01-23T05:37:20.743Z,11.80
2019-01-23T05:38:20.988Z,12.30
2019-01-23T05:39:20.909Z,12.20
2019-01-23T05:40:20.925Z,11.40
2019-01-23T05:41:20.829Z,12.20
2019-01-23T05:42:20.846Z,11.60
2019-01-23T05:43:20.923Z,12.10
2019-01-23T05:44:20.875Z,11.80
2019-01-23T05:45:20.923Z,11.80
2019-01-23T05:46:20.903Z,12.50
2019-01-23T05:47:21.045Z,13.10
2019-01-23T05:48:21.080Z,12.20
2019-01-23T05:49:20.958Z,12.90
2019-01-23T05:50:20.998Z,12.20
2019-01-23T05:51:21.033Z,12.60
2019-01-23T05:52:21.127Z,12.30
2019-01-23T05:53:21.255Z,11.70
2019-01-23T05:54:21.161Z,12.80
2019-01-23T05:55:21.180Z,13.10
2019-01-23T05:56:21.075Z,13.90
2019-01-23T05:57:21.210Z,12.60
2019-01-23T05:58:21.165Z,12.30
2019-01-23T05:59:21.131Z,13.00
2019-01-23T06:00:21.157Z,13.00
2019-01-23T06:01:21.174Z,12.20
2019-01-23T06:02:21.189Z,12.00
2019-01-23T06:03:21.415Z,12.00
2019-01-23T06:04:21.223Z,12.20
2019-01-23T06:05:21.239Z,11.70
2019-01-23T06:06:21.274Z,12.40
2019-01-23T06:07:21.381Z,12.70
2019-01-23T06:08:21.442Z,12.90
2019-01-23T06:09:22.773Z,13.00
2019-01-23T06:10:21.331Z,13.30
2019-01-23T06:11:21.338Z,12.60
2019-01-23T06:12:21.354Z,11.20
2019-01-23T06:13:21.478Z,12.30
2019-01-23T06:14:21.372Z,11.70
2019-01-23T06:15:21.402Z,12.00
2019-01-23T06:16:21.405Z,12.00
2019-01-23T06:17:21.434Z,12.10
2019-01-23T06:18:21.619Z,12.70
2019-01-23T06:19:21.580Z,12.30
2019-01-23T06:20:21.493Z,12.50
2019-01-23T06:21:21.500Z,12.00
2019-01-23T06:22:21.511Z,12.90
2019-01-23T06:23:21.582Z,11.70
2019-01-23T06:24:21.551Z,12.70
2019-01-23T06:25:21.574Z,12.30
2019-01-23T06:26:21.596Z,13.60
2019-01-23T06:27:21.715Z,12.60
2019-01-23T06:28:21.741Z,11.70
2019-01-23T06:29:21.847Z,12.00
2019-01-23T06:30:21.651Z,12.80
2019-01-23T06:31:21.781Z,12.30
2019-01-23T06:32:21.803Z,12.10
2019-01-23T06:33:21.702Z,11.40
2019-01-23T06:34:21.819Z,12.10
2019-01-23T06:35:21.740Z,11.50
2019-01-23T06:36:21.747Z,12.40
2019-01-23T06:37:21.763Z,11.60
2019-01-23T06:38:21.900Z,11.20
2019-01-23T06:39:21.956Z,12.50
2019-01-23T06:40:21.932Z,12.20
2019-01-23T06:41:21.953Z,13.60
2019-01-23T06:42:21.855Z,12.90
2019-01-23T06:43:21.981Z,12.70
2019-01-23T06:44:22.110Z,13.20
2019-01-23T06:45:22.026Z,12.70
2019-01-23T06:46:21.913Z,14.10
2019-01-23T06:47:22.061Z,13.50
2019-01-23T06:48:21.965Z,14.00
2019-01-23T06:49:22.082Z,14.40
2019-01-23T06:50:22.107Z,13.70
2019-01-23T06:51:22.113Z,14.30
2019-01-23T06:52:22.031Z,15.30
2019-01-23T06:53:22.027Z,15.60
2019-01-23T06:54:22.060Z,15.90
2019-01-23T06:55:22.120Z,15.10
2019-01-23T06:56:22.087Z,14.90
2019-01-23T06:57:22.214Z,16.30
2019-01-23T06:58:22.233Z,16.30
2019-01-23T06:59:22.249Z,16.00
2019-01-23T07:00:22.284Z,14.80
2019-01-23T07:01:22.162Z,15.10
2019-01-23T07:02:22.189Z,14.50
2019-01-23T07:03:22.313Z,15.40
2019-01-23T07:04:22.332Z,13.90
2019-01-23T07:05:22.398Z,15.70
2019-01-23T07:06:22.363Z,13.40
2019-01-23T07:07:22.312Z,14.90
2019-01-23T07:08:22.282Z,14.50
2019-01-23T07:09:22.307Z,14.00
2019-01-23T07:10:22.410Z,15.20
2019-01-23T07:11:22.347Z,14.30
2019-01-23T07:12:22.334Z,14.50
2019-01-23T07:13:22.371Z,15.60
2019-01-23T07:14:22.498Z,17.00
2019-01-23T07:15:22.459Z,15.30
2019-01-23T07:16:22.412Z,16.20
2019-01-23T07:17:22.417Z,16.00
2019-01-23T07:18:22.498Z,16.10
2019-01-23T07:19:22.470Z,16.60
2019-01-23T07:20:22.595Z,16.80
2019-01-23T07:21:22.611Z,16.10
2019-01-23T07:22:22.628Z,15.80
2019-01-23T07:23:22.640Z,16.50
2019-01-23T07:24:22.661Z,15.70
2019-01-23T07:25:22.671Z,17.10
2019-01-23T07:26:22.575Z,17.40
2019-01-23T07:27:22.589Z,16.00
2019-01-23T07:28:22.599Z,17.40
2019-01-23T07:29:22.743Z,17.70
2019-01-23T07:30:24.405Z,18.00
2019-01-23T07:31:22.771Z,19.00
2019-01-23T07:32:22.674Z,19.40
2019-01-23T07:33:22.701Z,19.10
2019-01-23T07:34:22.823Z,20.40
2019-01-23T07:35:22.786Z,19.30
2019-01-23T07:36:23.545Z,18.90
2019-01-23T07:37:22.749Z,20.60
2019-01-23T07:38:22.787Z,23.80
2019-01-23T07:39:22.770Z,23.20
2019-01-23T07:40:22.848Z,22.60
2019-01-23T07:41:22.801Z,23.00
2019-01-23T07:42:22.950Z,22.60
2019-01-23T07:43:22.854Z,22.80
2019-01-23T07:44:22.982Z,23.60
2019-01-23T07:45:23.026Z,23.90
2019-01-23T07:46:22.902Z,25.10
2019-01-23T07:47:22.936Z,24.30
2019-01-23T07:48:22.935Z,23.10
2019-01-23T07:49:22.969Z,23.20
2019-01-23T07:50:23.138Z,22.80
2019-01-23T07:51:23.034Z,23.10
2019-01-23T07:52:23.011Z,22.70
2019-01-23T07:53:23.129Z,23.70
2019-01-23T07:54:23.016Z,24.40
2019-01-23T07:55:23.266Z,23.70
2019-01-23T07:56:23.180Z,24.30
2019-01-23T07:57:23.095Z,22.80
2019-01-23T07:58:23.110Z,23.60
2019-01-23T07:59:23.115Z,23.30
2019-01-23T08:00:23.184Z,22.70
2019-01-23T08:01:23.261Z,23.10
2019-01-23T08:02:23.170Z,23.70
2019-01-23T08:03:23.291Z,22.70
2019-01-23T08:04:23.208Z,22.80
2019-01-23T08:05:23.348Z,21.00
2019-01-23T08:06:23.230Z,20.60
2019-01-23T08:07:23.286Z,21.80
2019-01-23T08:08:23.243Z,20.50
2019-01-23T08:09:23.398Z,20.80
2019-01-23T08:10:23.411Z,21.40
2019-01-23T08:11:23.403Z,23.50
2019-01-23T08:12:23.322Z,21.80
2019-01-23T08:13:23.352Z,20.40
2019-01-23T08:14:23.347Z,20.20
2019-01-23T08:15:23.485Z,21.20
2019-01-23T08:16:23.599Z,20.90
2019-01-23T08:17:23.400Z,19.90
2019-01-23T08:18:23.534Z,20.00
2019-01-23T08:19:23.431Z,20.00
2019-01-23T08:20:23.452Z,20.30
2019-01-23T08:21:23.744Z,20.50
2019-01-23T08:22:23.484Z,19.70
2019-01-23T08:23:23.515Z,20.70
2019-01-23T08:24:23.523Z,20.60
2019-01-23T08:25:23.648Z,21.40
2019-01-23T08:26:23.651Z,21.00
2019-01-23T08:27:23.551Z,20.40
2019-01-23T08:28:23.632Z,20.90
2019-01-23T08:29:23.607Z,20.00
2019-01-23T08:30:23.608Z,20.70
2019-01-23T08:31:23.728Z,21.50
2019-01-23T08:32:23.647Z,20.80
2019-01-23T08:33:23.782Z,21.10
2019-01-23T08:34:23.793Z,21.90
2019-01-23T08:35:23.813Z,21.90
2019-01-23T08:36:23.974Z,21.20
2019-01-23T08:37:23.844Z,20.30
2019-01-23T08:38:23.855Z,20.80
2019-01-23T08:39:23.886Z,21.80
2019-01-23T08:40:23.890Z,19.50
2019-01-23T08:41:23.947Z,20.20
2019-01-23T08:42:23.853Z,20.10
2019-01-23T08:43:23.876Z,20.80
2019-01-23T08:44:23.857Z,21.60
2019-01-23T08:45:23.876Z,21.40
2019-01-23T08:46:24.086Z,20.20
2019-01-23T08:47:23.906Z,20.90
2019-01-23T08:48:23.898Z,20.50
2019-01-23T08:49:23.912Z,20.70
2019-01-23T08:50:23.934Z,20.00
2019-01-23T08:51:24.174Z,19.30
2019-01-23T08:52:23.957Z,20.50
2019-01-23T08:53:23.994Z,20.50
2019-01-23T08:54:24.001Z,20.80
2019-01-23T08:55:24.034Z,19.70
2019-01-23T08:56:24.200Z,20.50
2019-01-23T08:57:24.174Z,19.30
2019-01-23T08:58:24.178Z,20.60
2019-01-23T08:59:24.193Z,21.50
2019-01-23T09:00:24.105Z,18.60
2019-01-23T09:01:24.266Z,20.20
2019-01-23T09:02:24.121Z,18.90
2019-01-23T09:03:24.273Z,18.90
2019-01-23T09:04:24.161Z,18.30
2019-01-23T09:05:24.177Z,17.30
2019-01-23T09:06:24.255Z,18.20
2019-01-23T09:07:24.327Z,17.60
2019-01-23T09:08:24.346Z,19.10
2019-01-23T09:09:24.249Z,14.70
2019-01-23T09:10:24.256Z,13.80
2019-01-23T09:11:24.541Z,13.70
2019-01-23T09:12:24.300Z,12.90
2019-01-23T09:13:24.316Z,13.10
2019-01-23T09:14:24.331Z,13.90
2019-01-23T09:15:24.373Z,13.50
2019-01-23T09:16:24.590Z,13.60
2019-01-23T09:17:24.496Z,13.00
2019-01-23T09:18:24.392Z,14.30
2019-01-23T09:19:24.429Z,15.60
2019-01-23T09:20:24.424Z,13.60
2019-01-23T09:21:24.509Z,14.70
2019-01-23T09:22:24.487Z,14.80
2019-01-23T09:23:24.603Z,13.20
2019-01-23T09:24:24.502Z,12.80
2019-01-23T09:25:24.652Z,12.20
2019-01-23T09:26:24.638Z,14.50
2019-01-23T09:27:24.568Z,12.20
2019-01-23T09:28:24.587Z,12.60
2019-01-23T09:29:24.588Z,12.40
2019-01-23T09:30:24.624Z,11.90
2019-01-23T09:31:24.847Z,12.30
2019-01-23T09:32:24.768Z,11.30
2019-01-23T09:33:24.800Z,11.70
2019-01-23T09:34:24.699Z,10.40
2019-01-23T09:35:24.710Z,11.50
2019-01-23T09:36:24.996Z,11.30
2019-01-23T09:37:24.762Z,11.40
2019-01-23T09:38:24.878Z,11.30
2019-01-23T09:39:24.900Z,12.90
2019-01-23T09:40:24.930Z,11.20
2019-01-23T09:41:25.098Z,11.90
2019-01-23T09:42:24.955Z,11.70
2019-01-23T09:43:24.867Z,12.40
2019-01-23T09:44:24.996Z,13.60
2019-01-23T09:45:25.019Z,12.50
2019-01-23T09:46:25.194Z,10.60
2019-01-23T09:47:25.055Z,13.80
2019-01-23T09:48:24.959Z,11.70
2019-01-23T09:49:24.969Z,11.80
2019-01-23T09:50:25.040Z,11.40
2019-01-23T09:51:25.102Z,11.20
2019-01-23T09:52:25.160Z,13.20
2019-01-23T09:53:25.064Z,15.50
2019-01-23T09:54:25.090Z,15.20
2019-01-23T09:55:25.112Z,15.50
2019-01-23T09:56:25.219Z,13.80
2019-01-23T09:57:25.268Z,13.70
2019-01-23T09:58:25.160Z,12.20
2019-01-23T09:59:25.294Z,15.00
2019-01-23T10:00:25.317Z,13.30
2019-01-23T10:01:25.311Z,14.70
2019-01-23T10:02:25.356Z,14.00
2019-01-23T10:03:25.312Z,13.00
2019-01-23T10:04:25.407Z,14.20
2019-01-23T10:05:25.324Z,12.70
2019-01-23T10:06:25.327Z,12.10
2019-01-23T10:07:25.573Z,12.90
2019-01-23T10:08:25.487Z,13.70
2019-01-23T10:09:25.391Z,12.60
2019-01-23T10:10:25.520Z,12.10
2019-01-23T10:11:25.428Z,12.20
2019-01-23T10:12:25.626Z,11.80
2019-01-23T10:13:25.497Z,12.70
2019-01-23T10:14:25.613Z,12.70
2019-01-23T10:15:25.504Z,11.10
2019-01-23T10:16:25.657Z,10.50
2019-01-23T10:17:25.717Z,12.20
2019-01-23T10:18:25.591Z,10.30
2019-01-23T10:19:25.704Z,12.40
2019-01-23T10:21:25.630Z,12.40
2019-01-23T10:22:25.783Z,13.50
2019-01-23T10:23:25.681Z,13.30
2019-01-23T10:24:25.704Z,11.60
2019-01-23T10:25:25.985Z,11.30
2019-01-23T10:26:25.860Z,13.10
2019-01-23T10:27:25.756Z,11.30
2019-01-23T10:28:26.859Z,10.30
2019-01-23T10:29:25.822Z,9.70
2019-01-23T10:30:25.993Z,13.10
2019-01-23T10:31:25.980Z,7.60
2019-01-23T10:32:25.877Z,7.20
2019-01-23T10:33:26.017Z,6.80
2019-01-23T10:34:25.928Z,6.30
2019-01-23T10:35:26.106Z,5.80
2019-01-23T10:36:26.094Z,6.30
2019-01-23T10:37:26.100Z,6.00
2019-01-23T10:38:26.121Z,7.50
2019-01-23T10:39:26.023Z,6.80
2019-01-23T10:40:26.262Z,6.10
2019-01-23T10:41:26.072Z,6.10
2019-01-23T10:42:26.101Z,6.50
2019-01-23T10:43:26.131Z,5.60
2019-01-23T10:44:26.149Z,7.70
2019-01-23T10:45:26.342Z,7.50
2019-01-23T10:46:26.240Z,12.10
2019-01-23T10:47:26.210Z,8.60
2019-01-23T10:48:26.354Z,8.40
2019-01-23T10:49:26.372Z,8.70
2019-01-23T10:50:26.497Z,9.00
2019-01-23T10:51:26.417Z,7.30
2019-01-23T10:52:26.439Z,6.90
2019-01-23T10:53:26.352Z,10.00
2019-01-23T10:54:26.378Z,8.10
2019-01-23T10:55:26.621Z,8.40
2019-01-23T10:56:26.547Z,9.00
2019-01-23T10:57:26.560Z,9.10
2019-01-23T10:58:26.464Z,8.60
2019-01-23T10:59:26.720Z,7.10
2019-01-23T11:00:26.657Z,6.90
2019-01-23T11:01:26.655Z,8.60
2019-01-23T11:02:26.580Z,8.60
2019-01-23T11:03:26.714Z,8.80
2019-01-23T11:04:26.616Z,9.10
2019-01-23T11:05:26.728Z,10.10
2019-01-23T11:06:26.761Z,10.30
2019-01-23T11:07:26.680Z,10.00
2019-01-23T11:08:26.702Z,8.80
2019-01-23T11:09:26.943Z,9.00
2019-01-23T11:10:26.797Z,10.10
2019-01-23T11:11:26.874Z,9.00
2019-01-23T11:12:26.844Z,9.30
2019-01-23T11:13:26.957Z,8.70
2019-01-23T11:14:26.981Z,8.40
2019-01-23T11:15:26.890Z,8.70
2019-01-23T11:16:26.975Z,8.30
2019-01-23T11:17:26.937Z,8.80
2019-01-23T11:18:26.952Z,8.50
2019-01-23T11:19:27.205Z,11.80
2019-01-23T11:20:27.003Z,8.60
2019-01-23T11:21:27.034Z,8.10
2019-01-23T11:22:27.181Z,9.50
2019-01-23T11:23:27.197Z,8.60
2019-01-23T11:24:27.226Z,7.20
2019-01-23T11:25:27.188Z,8.50
2019-01-23T11:26:27.165Z,6.70
2019-01-23T11:27:27.310Z,6.30
2019-01-23T11:28:27.322Z,8.80
2019-01-23T11:29:27.290Z,6.90
2019-01-23T11:30:27.479Z,5.40
2019-01-23T11:31:27.403Z,5.20
2019-01-23T11:32:27.439Z,7.60
2019-01-23T11:33:27.343Z,5.50
2019-01-23T11:34:27.497Z,5.70
2019-01-23T11:35:27.623Z,5.80
2019-01-23T11:36:27.543Z,5.30
2019-01-23T11:37:27.481Z,5.90
2019-01-23T11:38:27.479Z,6.10
2019-01-23T11:39:27.506Z,5.90
2019-01-23T11:40:27.798Z,5.30
2019-01-23T11:41:27.567Z,5.70
2019-01-23T11:42:27.688Z,6.40
2019-01-23T11:43:27.617Z,6.70
2019-01-23T11:44:27.746Z,8.00
2019-01-23T11:45:27.759Z,7.70
2019-01-23T11:46:27.801Z,6.40
2019-01-23T11:47:27.838Z,5.50
2019-01-23T11:48:27.864Z,6.40
2019-01-23T11:49:27.884Z,6.70
2019-01-23T11:50:28.006Z,6.40
2019-01-23T11:51:27.832Z,7.30
2019-01-23T11:52:27.956Z,6.40
2019-01-23T11:53:27.865Z,8.20
2019-01-23T11:54:28.014Z,7.00
2019-01-23T11:55:28.138Z,6.80
2019-01-23T11:56:27.940Z,6.90
2019-01-23T11:57:27.977Z,7.20
2019-01-23T11:58:28.132Z,7.50
2019-01-23T11:59:28.034Z,7.00
2019-01-23T12:00:28.333Z,7.20
2019-01-23T12:01:28.088Z,7.80
2019-01-23T12:02:31.013Z,6.60
2019-01-23T12:03:28.256Z,7.80
2019-01-23T12:04:28.280Z,8.80
2019-01-23T12:05:28.344Z,7.70
2019-01-23T12:06:28.221Z,8.80
2019-01-23T12:07:28.239Z,8.00
2019-01-23T12:08:28.318Z,9.20
2019-01-23T12:09:28.420Z,8.50
2019-01-23T12:10:28.497Z,10.40
2019-01-23T12:11:28.369Z,9.70
2019-01-23T12:12:28.507Z,10.80
2019-01-23T12:13:28.536Z,10.00
2019-01-23T12:14:28.570Z,10.40
2019-01-23T12:15:28.632Z,8.90
2019-01-23T12:16:28.496Z,8.30
2019-01-23T12:17:28.642Z,8.10
2019-01-23T12:18:28.680Z,10.40
2019-01-23T12:19:28.582Z,11.30
2019-01-23T12:20:28.700Z,10.70
2019-01-23T12:21:28.654Z,10.60
2019-01-23T12:22:28.773Z,10.90
2019-01-23T12:23:28.702Z,11.00
2019-01-23T12:24:28.696Z,12.10
2019-01-23T12:25:28.887Z,11.90
2019-01-23T12:26:28.890Z,10.20
2019-01-23T12:27:28.917Z,10.90
2019-01-23T12:28:28.941Z,9.60
2019-01-23T12:29:28.959Z,11.00
2019-01-23T12:30:29.040Z,10.40
2019-01-23T12:31:34.924Z,9.90
2019-01-23T12:32:29.037Z,9.00
2019-01-23T12:33:29.054Z,9.40
2019-01-23T12:34:29.102Z,9.50
2019-01-23T12:35:29.033Z,8.00
2019-01-23T12:36:29.048Z,8.10
2019-01-23T12:37:29.184Z,7.00
2019-01-23T12:38:29.303Z,7.70
2019-01-23T12:39:29.127Z,8.70
2019-01-23T12:40:29.155Z,8.50
2019-01-23T12:41:29.186Z,8.70
2019-01-23T12:42:29.242Z,9.10
2019-01-23T12:43:29.497Z,8.00
2019-01-23T12:44:29.259Z,8.30
2019-01-23T12:45:29.297Z,8.80
2019-01-23T12:46:29.312Z,7.90
2019-01-23T12:47:29.348Z,8.50
2019-01-23T12:48:29.465Z,8.50
2019-01-23T12:49:29.383Z,7.40
2019-01-23T12:50:29.557Z,8.20
2019-01-23T12:51:29.570Z,8.30
2019-01-23T12:52:29.605Z,7.90
2019-01-23T12:53:29.676Z,7.60
2019-01-23T12:54:29.662Z,8.30
2019-01-23T12:55:29.687Z,7.80
2019-01-23T12:56:29.711Z,8.10
2019-01-23T12:57:29.648Z,8.20
2019-01-23T12:58:29.797Z,8.50